Time;durP1;ratioP1;P1;durP2;ratioP2;P2;SDS_P1;SDS_P2;PMS_P1;PMS_P2;Temp;Humidity;BMP_temperature;BMP_pressure;BME280_temperature;BME280_humidity;BME280_pressure;Samples;Min_cycle;Max_cycle;Signal;HPM_P1;HPM_P2
2022/01/05 00:00:31;;;;;;;;;;;;;;;;;;2094009;28;19995;-82
2022/01/05 00:01:50;;;;;;;;;;;;;;;;;;2090671;28;19916;-82
2022/01/05 00:03:09;;;;;;;;;;;;;;;;;;2086859;28;19905;-82
2022/01/05 00:04:28;;;;;;;;;;;;;;;;;;2089037;28;19991;-82
2022/01/05 00:05:47;;;;;;;;;;;;;;;;;;2089418;28;19979;-82
2022/01/05 00:07:10;;;;;;;;;;;;;;;;;;2086052;28;19905;-82
2022/01/05 00:08:32;;;;;;;;;;;;;;;;;;2085353;28;19909;-82
2022/01/05 00:09:51;;;;;;;;;;;;;;;;;;2086056;28;19924;-82
2022/01/05 00:11:10;;;;;;;;;;;;;;;;;;2089896;28;19908;-82
2022/01/05 00:12:29;;;;;;;;;;;;;;;;;;2086854;28;19931;-81
2022/01/05 00:13:48;;;;;;;;;;;;;;;;;;2086929;28;19948;-81
2022/01/05 00:15:07;;;;;;;;;;;;;;;;;;2083461;28;19924;-81
2022/01/05 00:16:26;;;;;;;;;;;;;;;;;;2084382;28;19921;-82
2022/01/05 00:17:45;;;;;;;;;;;;;;;;;;2086853;28;19913;-82
2022/01/05 00:19:04;;;;;;;;;;;;;;;;;;2084679;28;19905;-82
2022/01/05 00:20:22;;;;;;;;;;;;;;;;;;2084915;28;19905;-81
2022/01/05 00:21:41;;;;;;;;;;;;;;;;;;2084274;28;19917;-82
2022/01/05 00:23:00;;;;;;;;;;;;;;;;;;2085682;28;19909;-82
2022/01/05 00:24:19;;;;;;;;;;;;;;;;;;2085534;28;19999;-82
2022/01/05 00:25:38;;;;;;;;;;;;;;;;;;2086360;28;19913;-82
2022/01/05 00:26:57;;;;;;;;;;;;;;;;;;2090301;28;20297;-81
2022/01/05 00:28:16;;;;;;;;;;;;;;;;;;2087057;28;19905;-82
2022/01/05 00:29:34;;;;;;;;;;;;;;;;;;2085585;28;19995;-82
2022/01/05 00:30:53;;;;;;;;;;;;;;;;;;2084429;28;19908;-82
2022/01/05 00:32:12;;;;;;;;;;;;;;;;;;2084819;28;19942;-82
2022/01/05 00:33:31;;;;;;;;;;;;;;;;;;2085573;28;19991;-82
2022/01/05 00:34:49;;;;;;;;;;;;;;;;;;2086266;28;19909;-82
2022/01/05 00:36:08;;;;;;;;;;;;;;;;;;2087066;28;19917;-81
2022/01/05 00:37:27;;;;;;;;;;;;;;;;;;2084948;28;19912;-82
2022/01/05 00:38:46;;;;;;;;;;;;;;;;;;2088408;28;19912;-83
2022/01/05 00:40:04;;;;;;;;;;;;;;;;;;2086604;28;20348;-83
2022/01/05 00:41:23;;;;;;;;;;;;;;;;;;2084310;28;19905;-83
2022/01/05 00:42:42;;;;;;;;;;;;;;;;;;2084359;28;19909;-83
2022/01/05 00:44:01;;;;;;;;;;;;;;;;;;2089068;28;19909;-83
2022/01/05 00:45:20;;;;;;;;;;;;;;;;;;2089264;28;19904;-83
2022/01/05 00:46:39;;;;;;;;;;;;;;;;;;2090010;28;19917;-83
2022/01/05 00:47:58;;;;;;;;;;;;;;;;;;2085520;28;20289;-83
2022/01/05 00:49:16;;;;;;;;;;;;;;;;;;2085157;28;19909;-82
2022/01/05 00:50:35;;;;;;;;;;;;;;;;;;2084630;28;19909;-82
2022/01/05 00:51:54;;;;;;;;;;;;;;;;;;2089492;28;19920;-82
2022/01/05 00:53:13;;;;;;;;;;;;;;;;;;2088215;28;19913;-83
2022/01/05 00:54:32;;;;;;;;;;;;;;;;;;2087681;28;19917;-82
2022/01/05 00:55:51;;;;;;;;;;;;;;;;;;2084292;28;19916;-82
2022/01/05 00:57:10;;;;;;;;;;;;;;;;;;2086762;28;19980;-83
2022/01/05 00:58:28;;;;;;;;;;;;;;;;;;2084896;28;19913;-82
2022/01/05 00:59:47;;;;;;;;;;;;;;;;;;2087179;28;19917;-82
2022/01/05 01:01:06;;;;;;;;;;;;;;;;;;2085918;28;19908;-83
2022/01/05 01:02:24;;;;;;;;;;;;;;;;;;2087791;28;19952;-81
2022/01/05 01:03:45;;;;;;;;;;;;;;;;;;2085025;28;19909;-83
2022/01/05 01:05:04;;;;;;;;;;;;;;;;;;2085959;28;20328;-82
2022/01/05 01:06:23;;;;;;;;;;;;;;;;;;2085812;28;20380;-82
2022/01/05 01:07:42;;;;;;;;;;;;;;;;;;2092299;28;19983;-81
2022/01/05 01:09:01;;;;;;;;;;;;;;;;;;2089088;28;19967;-81
2022/01/05 01:10:20;;;;;;;;;;;;;;;;;;2089100;28;19905;-81
2022/01/05 01:11:39;;;;;;;;;;;;;;;;;;2088145;28;19999;-82
2022/01/05 01:12:58;;;;;;;;;;;;;;;;;;2084273;28;19909;-81
2022/01/05 01:14:17;;;;;;;;;;;;;;;;;;2083966;28;19909;-82
2022/01/05 01:15:36;;;;;;;;;;;;;;;;;;2085545;28;19999;-82
2022/01/05 01:16:54;;;;;;;;;;;;;;;;;;2084908;28;20362;-82
2022/01/05 01:18:13;;;;;;;;;;;;;;;;;;2085167;28;19908;-82
2022/01/05 01:19:32;;;;;;;;;;;;;;;;;;2091638;28;19909;-82
2022/01/05 01:20:51;;;;;;;;;;;;;;;;;;2087835;28;19908;-82
2022/01/05 01:22:10;;;;;;;;;;;;;;;;;;2087026;28;19912;-83
2022/01/05 01:23:29;;;;;;;;;;;;;;;;;;2086239;28;19959;-82
2022/01/05 01:24:48;;;;;;;;;;;;;;;;;;2088296;28;20380;-82
2022/01/05 01:26:07;;;;;;;;;;;;;;;;;;2089505;28;19916;-82
2022/01/05 01:27:25;;;;;;;;;;;;;;;;;;2085968;28;19936;-82
2022/01/05 01:28:44;;;;;;;;;;;;;;;;;;2086338;28;19909;-82
2022/01/05 01:30:02;;;;;;;;;;;;;;;;;;2085562;28;20003;-82
2022/01/05 01:31:21;;;;;;;;;;;;;;;;;;2085605;28;19909;-82
2022/01/05 01:32:41;;;;;;;;;;;;;;;;;;2090014;28;19917;-82
2022/01/05 01:34:00;;;;;;;;;;;;;;;;;;2084536;28;19917;-83
2022/01/05 01:35:19;;;;;;;;;;;;;;;;;;2085360;28;19921;-82
2022/01/05 01:36:37;;;;;;;;;;;;;;;;;;2088900;28;19913;-83
2022/01/05 01:37:56;;;;;;;;;;;;;;;;;;2087274;28;19918;-81
2022/01/05 01:39:15;;;;;;;;;;;;;;;;;;2085971;28;19909;-82
2022/01/05 01:40:34;;;;;;;;;;;;;;;;;;2082943;28;19905;-82
2022/01/05 01:41:53;;;;;;;;;;;;;;;;;;2085237;28;19917;-82
2022/01/05 01:43:12;;;;;;;;;;;;;;;;;;2083994;28;19909;-82
2022/01/05 01:44:30;;;;;;;;;;;;;;;;;;2084156;28;19987;-82
2022/01/05 01:45:49;;;;;;;;;;;;;;;;;;2089381;28;19921;-81
2022/01/05 01:47:08;;;;;;;;;;;;;;;;;;2086263;28;19913;-82
2022/01/05 01:48:27;;;;;;;;;;;;;;;;;;2085741;28;20329;-82
2022/01/05 01:49:47;;;;;;;;;;;;;;;;;;2088821;28;20378;-83
2022/01/05 01:51:06;;;;;;;;;;;;;;;;;;2089527;28;19908;-82
2022/01/05 01:52:24;;;;;;;;;;;;;;;;;;2084818;28;19916;-83
2022/01/05 01:53:43;;;;;;;;;;;;;;;;;;2085678;28;19905;-82
2022/01/05 01:55:02;;;;;;;;;;;;;;;;;;2088260;28;19909;-82
2022/01/05 01:56:21;;;;;;;;;;;;;;;;;;2088475;28;19948;-82
2022/01/05 01:57:39;;;;;;;;;;;;;;;;;;2088229;28;19917;-82
2022/01/05 01:58:58;;;;;;;;;;;;;;;;;;2083274;28;19966;-82
2022/01/05 02:00:17;;;;;;;;;;;;;;;;;;2085036;28;19905;-82
2022/01/05 02:01:36;;;;;;;;;;;;;;;;;;2084798;28;19917;-82
2022/01/05 02:02:55;;;;;;;;;;;;;;;;;;2085865;28;20270;-83
2022/01/05 02:04:13;;;;;;;;;;;;;;;;;;2084588;28;19904;-82
2022/01/05 02:05:32;;;;;;;;;;;;;;;;;;2088035;28;19913;-82
2022/01/05 02:06:52;;;;;;;;;;;;;;;;;;2088319;28;19968;-82
2022/01/05 02:08:11;;;;;;;;;;;;;;;;;;2085073;28;20722;-82
2022/01/05 02:09:30;;;;;;;;;;;;;;;;;;2086450;28;19909;-81
2022/01/05 02:10:49;;;;;;;;;;;;;;;;;;2088949;28;19909;-82
2022/01/05 02:12:08;;;;;;;;;;;;;;;;;;2084632;28;19916;-82
2022/01/05 02:13:27;;;;;;;;;;;;;;;;;;2082922;28;19921;-83
2022/01/05 02:14:45;;;;;;;;;;;;;;;;;;2088523;28;19913;-82
2022/01/05 02:16:04;;;;;;;;;;;;;;;;;;2086285;28;19909;-82
2022/01/05 02:17:31;;;;;;;;;;;;;;;;;;2089019;28;19909;-83
2022/01/05 02:18:58;;;;;;;;;;;;;;;;;;2086711;28;19913;-82
2022/01/05 02:20:17;;;;;;;;;;;;;;;;;;2089322;28;19908;-83
2022/01/05 02:21:36;;;;;;;;;;;;;;;;;;2089022;28;20370;-83
2022/01/05 02:22:55;;;;;;;;;;;;;;;;;;2089855;28;19912;-82
2022/01/05 02:24:13;;;;;;;;;;;;;;;;;;2087050;28;19908;-83
2022/01/05 02:25:32;;;;;;;;;;;;;;;;;;2085267;28;19901;-82
2022/01/05 02:26:51;;;;;;;;;;;;;;;;;;2084551;28;19904;-82
2022/01/05 02:28:10;;;;;;;;;;;;;;;;;;2088961;28;19920;-82
2022/01/05 02:29:29;;;;;;;;;;;;;;;;;;2088299;28;19909;-83
2022/01/05 02:30:48;;;;;;;;;;;;;;;;;;2089005;28;19916;-82
2022/01/05 02:32:06;;;;;;;;;;;;;;;;;;2086056;28;19940;-82
2022/01/05 02:33:25;;;;;;;;;;;;;;;;;;2085362;28;19909;-83
2022/01/05 02:34:44;;;;;;;;;;;;;;;;;;2088497;28;19908;-83
2022/01/05 02:36:04;;;;;;;;;;;;;;;;;;2088176;28;19908;-83
2022/01/05 02:37:23;;;;;;;;;;;;;;;;;;2087933;28;21171;-83
2022/01/05 02:38:41;;;;;;;;;;;;;;;;;;2084282;28;19905;-82
2022/01/05 02:40:00;;;;;;;;;;;;;;;;;;2086197;28;19905;-82
2022/01/05 02:41:19;;;;;;;;;;;;;;;;;;2085468;28;19916;-82
2022/01/05 02:42:38;;;;;;;;;;;;;;;;;;2088088;28;19967;-83
2022/01/05 02:43:57;;;;;;;;;;;;;;;;;;2085323;28;19908;-83
2022/01/05 02:45:16;;;;;;;;;;;;;;;;;;2082920;28;19948;-83
2022/01/05 02:46:34;;;;;;;;;;;;;;;;;;2082340;28;19995;-83
2022/01/05 02:47:53;;;;;;;;;;;;;;;;;;2085829;28;19916;-83
2022/01/05 02:49:12;;;;;;;;;;;;;;;;;;2087397;28;19904;-82
2022/01/05 02:50:30;;;;;;;;;;;;;;;;;;2086989;28;19905;-82
2022/01/05 02:51:49;;;;;;;;;;;;;;;;;;2089593;28;19904;-83
2022/01/05 02:53:08;;;;;;;;;;;;;;;;;;2090683;28;19917;-83
2022/01/05 02:54:27;;;;;;;;;;;;;;;;;;2086524;28;19960;-82
2022/01/05 02:55:46;;;;;;;;;;;;;;;;;;2086668;28;20031;-82
2022/01/05 02:57:05;;;;;;;;;;;;;;;;;;2088375;28;19904;-82
2022/01/05 02:58:24;;;;;;;;;;;;;;;;;;2090048;28;19912;-82
2022/01/05 02:59:43;;;;;;;;;;;;;;;;;;2090557;28;19908;-82
2022/01/05 03:01:02;;;;;;;;;;;;;;;;;;2089215;28;19948;-81
2022/01/05 03:02:20;;;;;;;;;;;;;;;;;;2092788;28;19943;-82
2022/01/05 03:03:39;;;;;;;;;;;;;;;;;;2089496;28;19913;-82
2022/01/05 03:04:58;;;;;;;;;;;;;;;;;;2089986;28;19912;-83
2022/01/05 03:06:17;;;;;;;;;;;;;;;;;;2090595;28;19904;-82
2022/01/05 03:07:39;;;;;;;;;;;;;;;;;;2089594;28;20382;-82
2022/01/05 03:08:58;;;;;;;;;;;;;;;;;;2089638;28;20365;-82
2022/01/05 03:10:18;;;;;;;;;;;;;;;;;;2086486;28;20357;-82
2022/01/05 03:11:37;;;;;;;;;;;;;;;;;;2087465;28;20605;-83
2022/01/05 03:12:56;;;;;;;;;;;;;;;;;;2088428;28;20007;-83
2022/01/05 03:14:15;;;;;;;;;;;;;;;;;;2090014;28;19931;-83
2022/01/05 03:15:35;;;;;;;;;;;;;;;;;;2086235;28;19956;-83
2022/01/05 03:16:54;;;;;;;;;;;;;;;;;;2087020;28;19913;-82
2022/01/05 03:18:13;;;;;;;;;;;;;;;;;;2087183;28;19913;-82
2022/01/05 03:19:32;;;;;;;;;;;;;;;;;;2086900;28;19997;-82
2022/01/05 03:20:51;;;;;;;;;;;;;;;;;;2085958;28;19913;-82
2022/01/05 03:22:09;;;;;;;;;;;;;;;;;;2086297;28;19913;-82
2022/01/05 03:23:28;;;;;;;;;;;;;;;;;;2090402;28;20353;-82
2022/01/05 03:24:47;;;;;;;;;;;;;;;;;;2089345;28;19905;-82
2022/01/05 03:26:06;;;;;;;;;;;;;;;;;;2087590;28;19908;-82
2022/01/05 03:27:25;;;;;;;;;;;;;;;;;;2088401;28;19913;-82
2022/01/05 03:28:44;;;;;;;;;;;;;;;;;;2090196;28;20312;-82
2022/01/05 03:30:03;;;;;;;;;;;;;;;;;;2088990;28;20300;-82
2022/01/05 03:31:22;;;;;;;;;;;;;;;;;;2086787;28;19948;-82
2022/01/05 03:33:00;;;;;;;;;;;;;;;;;;2086950;28;19916;-82
2022/01/05 03:34:20;;;;;;;;;;;;;;;;;;2087233;28;20286;-83
2022/01/05 03:35:39;;;;;;;;;;;;;;;;;;2084450;28;19909;-82
2022/01/05 03:36:59;;;;;;;;;;;;;;;;;;2085334;28;19916;-82
2022/01/05 03:38:18;;;;;;;;;;;;;;;;;;2086567;28;19917;-82
2022/01/05 03:39:38;;;;;;;;;;;;;;;;;;2090291;28;20308;-82
2022/01/05 03:40:57;;;;;;;;;;;;;;;;;;2090071;28;19905;-82
2022/01/05 03:42:15;;;;;;;;;;;;;;;;;;2085213;28;19912;-83
2022/01/05 03:43:34;;;;;;;;;;;;;;;;;;2093275;28;19916;-83
2022/01/05 03:44:53;;;;;;;;;;;;;;;;;;2089055;28;19909;-81
2022/01/05 03:46:12;;;;;;;;;;;;;;;;;;2088561;28;20305;-83
2022/01/05 03:47:31;;;;;;;;;;;;;;;;;;2089837;28;20337;-81
2022/01/05 03:48:50;;;;;;;;;;;;;;;;;;2088464;28;19912;-82
2022/01/05 03:50:09;;;;;;;;;;;;;;;;;;2086406;28;19995;-81
2022/01/05 03:51:28;;;;;;;;;;;;;;;;;;2086913;28;19912;-82
2022/01/05 03:52:46;;;;;;;;;;;;;;;;;;2092677;28;19908;-83
2022/01/05 03:54:05;;;;;;;;;;;;;;;;;;2087957;28;19999;-83
2022/01/05 03:55:24;;;;;;;;;;;;;;;;;;2090432;28;19951;-82
2022/01/05 03:56:43;;;;;;;;;;;;;;;;;;2087341;28;19905;-82
2022/01/05 03:58:01;;;;;;;;;;;;;;;;;;2087112;28;19908;-82
2022/01/05 03:59:21;;;;;;;;;;;;;;;;;;2088582;28;20305;-82
2022/01/05 04:00:40;;;;;;;;;;;;;;;;;;2089268;28;19995;-82
2022/01/05 04:01:59;;;;;;;;;;;;;;;;;;2088813;28;19905;-82
2022/01/05 04:03:18;;;;;;;;;;;;;;;;;;2087948;28;19938;-82
2022/01/05 04:04:37;;;;;;;;;;;;;;;;;;2084538;28;19992;-82
2022/01/05 04:05:55;;;;;;;;;;;;;;;;;;2084864;28;20374;-82
2022/01/05 04:07:15;;;;;;;;;;;;;;;;;;2085115;28;20358;-82
2022/01/05 04:08:34;;;;;;;;;;;;;;;;;;2088487;28;19905;-82
2022/01/05 04:09:53;;;;;;;;;;;;;;;;;;2090328;28;19955;-82
2022/01/05 04:11:12;;;;;;;;;;;;;;;;;;2089147;28;20321;-82
2022/01/05 04:12:31;;;;;;;;;;;;;;;;;;2088682;28;20338;-83
2022/01/05 04:13:52;;;;;;;;;;;;;;;;;;2089418;28;19913;-82
2022/01/05 04:15:11;;;;;;;;;;;;;;;;;;2090247;28;19956;-82
2022/01/05 04:16:30;;;;;;;;;;;;;;;;;;2088842;28;19909;-82
2022/01/05 04:17:49;;;;;;;;;;;;;;;;;;2084284;28;20453;-83
2022/01/05 04:19:08;;;;;;;;;;;;;;;;;;2086476;28;20360;-84
2022/01/05 04:20:26;;;;;;;;;;;;;;;;;;2085613;28;19908;-82
2022/01/05 04:21:45;;;;;;;;;;;;;;;;;;2083289;28;19909;-83
2022/01/05 04:23:04;;;;;;;;;;;;;;;;;;2085082;28;19908;-82
2022/01/05 04:24:23;;;;;;;;;;;;;;;;;;2094201;28;20562;-83
2022/01/05 04:25:42;;;;;;;;;;;;;;;;;;2088874;28;19920;-83
2022/01/05 04:27:01;;;;;;;;;;;;;;;;;;2090170;28;19939;-82
2022/01/05 04:28:20;;;;;;;;;;;;;;;;;;2088827;28;19909;-83
2022/01/05 04:29:38;;;;;;;;;;;;;;;;;;2085221;28;19947;-82
2022/01/05 04:30:57;;;;;;;;;;;;;;;;;;2086192;28;20367;-82
2022/01/05 04:32:16;;;;;;;;;;;;;;;;;;2089308;28;19972;-82
2022/01/05 04:33:35;;;;;;;;;;;;;;;;;;2088972;28;19916;-82
2022/01/05 04:34:54;;;;;;;;;;;;;;;;;;2089663;28;20309;-82
2022/01/05 04:36:13;;;;;;;;;;;;;;;;;;2085772;28;20378;-83
2022/01/05 04:37:32;;;;;;;;;;;;;;;;;;2091866;28;19905;-82
2022/01/05 04:38:50;;;;;;;;;;;;;;;;;;2087767;28;19904;-82
2022/01/05 04:40:09;;;;;;;;;;;;;;;;;;2086256;28;19913;-82
2022/01/05 04:41:27;;;;;;;;;;;;;;;;;;2086019;28;19941;-83
2022/01/05 04:42:46;;;;;;;;;;;;;;;;;;2092450;28;19917;-82
2022/01/05 04:44:05;;;;;;;;;;;;;;;;;;2088891;28;19909;-83
2022/01/05 04:45:24;;;;;;;;;;;;;;;;;;2086597;28;19909;-82
2022/01/05 04:46:42;;;;;;;;;;;;;;;;;;2089476;28;20354;-82
2022/01/05 04:48:02;;;;;;;;;;;;;;;;;;2089203;28;19908;-83
2022/01/05 04:49:21;;;;;;;;;;;;;;;;;;2086836;28;19905;-82
2022/01/05 04:50:40;;;;;;;;;;;;;;;;;;2084003;28;20347;-82
2022/01/05 04:51:59;;;;;;;;;;;;;;;;;;2091384;28;20332;-82
2022/01/05 04:53:18;;;;;;;;;;;;;;;;;;2087108;28;19979;-83
2022/01/05 04:54:37;;;;;;;;;;;;;;;;;;2083386;28;19917;-82
2022/01/05 04:55:56;;;;;;;;;;;;;;;;;;2084128;28;19995;-82
2022/01/05 04:57:15;;;;;;;;;;;;;;;;;;2085265;28;19905;-82
2022/01/05 04:58:33;;;;;;;;;;;;;;;;;;2086078;28;19905;-82
2022/01/05 04:59:52;;;;;;;;;;;;;;;;;;2083636;28;19909;-82
2022/01/05 05:01:11;;;;;;;;;;;;;;;;;;2083518;28;19909;-82
2022/01/05 05:02:29;;;;;;;;;;;;;;;;;;2089403;28;19913;-82
2022/01/05 05:03:48;;;;;;;;;;;;;;;;;;2088501;28;19939;-81
2022/01/05 05:05:07;;;;;;;;;;;;;;;;;;2087729;28;19916;-82
2022/01/05 05:06:25;;;;;;;;;;;;;;;;;;2087840;28;19955;-83
2022/01/05 05:07:44;;;;;;;;;;;;;;;;;;2088789;28;19916;-82
2022/01/05 05:09:03;;;;;;;;;;;;;;;;;;2085326;28;19904;-82
2022/01/05 05:10:22;;;;;;;;;;;;;;;;;;2085782;28;19988;-82
2022/01/05 05:11:41;;;;;;;;;;;;;;;;;;2089592;28;19905;-83
2022/01/05 05:13:00;;;;;;;;;;;;;;;;;;2085821;28;19921;-82
2022/01/05 05:14:18;;;;;;;;;;;;;;;;;;2084615;28;19909;-82
2022/01/05 05:15:37;;;;;;;;;;;;;;;;;;2085872;28;21181;-83
2022/01/05 05:16:56;;;;;;;;;;;;;;;;;;2089634;28;19905;-83
2022/01/05 05:18:15;;;;;;;;;;;;;;;;;;2088827;28;19913;-82
2022/01/05 05:19:34;;;;;;;;;;;;;;;;;;2089307;28;19909;-83
2022/01/05 05:20:53;;;;;;;;;;;;;;;;;;2088950;28;19987;-81
2022/01/05 05:22:12;;;;;;;;;;;;;;;;;;2085207;28;19984;-83
2022/01/05 05:23:31;;;;;;;;;;;;;;;;;;2084699;28;19917;-82
2022/01/05 05:24:50;;;;;;;;;;;;;;;;;;2088805;28;19912;-83
2022/01/05 05:26:08;;;;;;;;;;;;;;;;;;2089387;28;19947;-82
2022/01/05 05:27:27;;;;;;;;;;;;;;;;;;2087869;28;19905;-83
2022/01/05 05:28:46;;;;;;;;;;;;;;;;;;2087786;28;19905;-82
2022/01/05 05:30:05;;;;;;;;;;;;;;;;;;2089132;28;19912;-83
2022/01/05 05:31:24;;;;;;;;;;;;;;;;;;2089355;28;20039;-83
2022/01/05 05:32:43;;;;;;;;;;;;;;;;;;2086449;28;19930;-83
2022/01/05 05:34:01;;;;;;;;;;;;;;;;;;2089088;28;19944;-83
2022/01/05 05:35:21;;;;;;;;;;;;;;;;;;2088981;28;19944;-83
2022/01/05 05:36:40;;;;;;;;;;;;;;;;;;2088763;28;19908;-83
2022/01/05 05:37:58;;;;;;;;;;;;;;;;;;2087479;28;19992;-82
2022/01/05 05:39:17;;;;;;;;;;;;;;;;;;2089448;28;19908;-82
2022/01/05 05:40:36;;;;;;;;;;;;;;;;;;2084436;28;19908;-83
2022/01/05 05:41:55;;;;;;;;;;;;;;;;;;2091661;28;19908;-83
2022/01/05 05:43:14;;;;;;;;;;;;;;;;;;2087055;28;19917;-83
2022/01/05 05:44:32;;;;;;;;;;;;;;;;;;2084484;28;19983;-83
2022/01/05 05:45:51;;;;;;;;;;;;;;;;;;2084369;28;20352;-82
2022/01/05 05:47:10;;;;;;;;;;;;;;;;;;2084722;28;20312;-84
2022/01/05 05:48:29;;;;;;;;;;;;;;;;;;2085111;28;19905;-83
2022/01/05 05:49:48;;;;;;;;;;;;;;;;;;2083526;28;19913;-83
2022/01/05 05:51:07;;;;;;;;;;;;;;;;;;2086920;28;19913;-83
2022/01/05 05:52:26;;;;;;;;;;;;;;;;;;2088553;28;19968;-83
2022/01/05 05:53:45;;;;;;;;;;;;;;;;;;2085134;28;19904;-83
2022/01/05 05:55:04;;;;;;;;;;;;;;;;;;2084239;28;20344;-83
2022/01/05 05:56:23;;;;;;;;;;;;;;;;;;2089037;28;19956;-83
2022/01/05 05:57:42;;;;;;;;;;;;;;;;;;2089455;28;19913;-82
2022/01/05 05:59:01;;;;;;;;;;;;;;;;;;2088992;28;19904;-83
2022/01/05 06:00:19;;;;;;;;;;;;;;;;;;2085879;28;19913;-83
2022/01/05 06:01:38;;;;;;;;;;;;;;;;;;2086130;28;20015;-83
2022/01/05 06:02:57;;;;;;;;;;;;;;;;;;2088403;28;19917;-84
2022/01/05 06:04:16;;;;;;;;;;;;;;;;;;2090685;28;19904;-82
2022/01/05 06:05:34;;;;;;;;;;;;;;;;;;2092245;28;19908;-82
2022/01/05 06:06:53;;;;;;;;;;;;;;;;;;2089230;28;20372;-82
2022/01/05 06:08:12;;;;;;;;;;;;;;;;;;2088506;28;19912;-82
2022/01/05 06:09:31;;;;;;;;;;;;;;;;;;2085393;28;19984;-82
2022/01/05 06:10:50;;;;;;;;;;;;;;;;;;2085087;28;19952;-83
2022/01/05 06:12:08;;;;;;;;;;;;;;;;;;2087486;28;19916;-81
2022/01/05 06:13:27;;;;;;;;;;;;;;;;;;2087337;28;19913;-84
2022/01/05 06:14:46;;;;;;;;;;;;;;;;;;2088544;28;19905;-83
2022/01/05 06:16:05;;;;;;;;;;;;;;;;;;2086133;28;19972;-82
2022/01/05 06:17:24;;;;;;;;;;;;;;;;;;2081641;28;20281;-84
2022/01/05 06:18:43;;;;;;;;;;;;;;;;;;2082867;28;19909;-82
2022/01/05 06:20:01;;;;;;;;;;;;;;;;;;2084737;28;19909;-83
2022/01/05 06:21:20;;;;;;;;;;;;;;;;;;2083102;28;19909;-83
2022/01/05 06:22:39;;;;;;;;;;;;;;;;;;2083869;28;19972;-83
2022/01/05 06:23:58;;;;;;;;;;;;;;;;;;2084806;28;20143;-84
2022/01/05 06:29:13;;;;;;;;;;;;;;;;;;2063352;28;19906;-85
2022/01/05 06:32:20;;;;;;;;;;;;;;;;;;2052071;28;20310;-82
2022/01/05 06:33:51;;;;;;;;;;;;;;;;;;2056902;28;20557;-83
2022/01/05 06:35:33;;;;;;;;;;;;;;;;;;;;;
2022/01/05 06:36:55;;;;;;;;;;;;;;;;;;2063728;28;19913;-83
2022/01/05 06:43:37;;;;;;;;;;;;;;;;;;;;;
2022/01/05 06:45:02;;;;;;;;;;;;;;;;;;2039943;29;19911;-84
2022/01/05 06:51:50;;;;;;;;;;;;;;;;;;2053470;28;19914;-83
2022/01/05 06:53:12;;;;;;;;;;;;;;;;;;2054127;28;19914;-85
2022/01/05 06:54:36;;;;;;;;;;;;;;;;;;2052806;28;20495;-84
2022/01/05 06:56:05;;;;;;;;;;;;;;;;;;;;;
2022/01/05 06:57:34;;;;;;;;;;;;;;;;;;2069270;28;19913;-84
2022/01/05 06:58:53;;;;;;;;;;;;;;;;;;2067345;28;19914;-84
2022/01/05 07:00:12;;;;;;;;;;;;;;;;;;2061751;28;20824;-84
2022/01/05 07:01:31;;;;;;;;;;;;;;;;;;2059517;28;21908;-84
2022/01/05 07:03:00;;;;;;;;;;;;;;;;;;2063363;28;19909;-84
2022/01/05 07:04:27;;;;;;;;;;;;;;;;;;2062821;28;19909;-84
2022/01/05 07:07:29;;;;;;;;;;;;;;;;;;2061349;28;19910;-84
2022/01/05 07:08:48;;;;;;;;;;;;;;;;;;2062990;28;19993;-83
2022/01/05 07:10:14;;;;;;;;;;;;;;;;;;2060732;28;20491;-85
2022/01/05 07:11:35;;;;;;;;;;;;;;;;;;2061975;28;19988;-85
2022/01/05 07:12:57;;;;;;;;;;;;;;;;;;2070143;28;19999;-83
2022/01/05 07:14:16;;;;;;;;;;;;;;;;;;2061787;28;19910;-84
2022/01/05 07:15:35;;;;;;;;;;;;;;;;;;2067872;28;19917;-83
2022/01/05 07:16:53;;;;;;;;;;;;;;;;;;2063784;28;19913;-83
2022/01/05 07:18:22;;;;;;;;;;;;;;;;;;2083961;28;19913;-86
2022/01/05 07:24:46;;;;;;;;;;;;;;;;;;2086957;28;20354;-80
2022/01/05 07:26:14;;;;;;;;;;;;;;;;;;2087564;28;19909;-86
2022/01/05 07:27:32;;;;;;;;;;;;;;;;;;2085854;28;20382;-85
2022/01/05 07:28:53;;;;;;;;;;;;;;;;;;2091532;28;19913;-84
2022/01/05 07:30:25;;;;;;;;;;;;;;;;;;2088934;28;19904;-87
2022/01/05 07:31:44;;;;;;;;;;;;;;;;;;2087340;28;20392;-84
2022/01/05 07:33:02;;;;;;;;;;;;;;;;;;2083147;28;20344;-84
2022/01/05 07:34:21;;;;;;;;;;;;;;;;;;2085915;28;19909;-82
2022/01/05 07:35:40;;;;;;;;;;;;;;;;;;2084999;28;20405;-84
2022/01/05 07:37:04;;;;;;;;;;;;;;;;;;2087524;28;19909;-84
2022/01/05 07:38:23;;;;;;;;;;;;;;;;;;2084721;28;19917;-85
2022/01/05 07:39:42;;;;;;;;;;;;;;;;;;2088280;28;19917;-83
2022/01/05 07:41:01;;;;;;;;;;;;;;;;;;2089819;28;20456;-82
2022/01/05 07:42:20;;;;;;;;;;;;;;;;;;2088107;28;19937;-82
2022/01/05 07:43:39;;;;;;;;;;;;;;;;;;2085921;28;19909;-81
2022/01/05 07:44:57;;;;;;;;;;;;;;;;;;2088097;28;19904;-84
2022/01/05 07:46:16;;;;;;;;;;;;;;;;;;2088787;28;19908;-81
2022/01/05 07:47:35;;;;;;;;;;;;;;;;;;2086465;28;20373;-81
2022/01/05 07:48:54;;;;;;;;;;;;;;;;;;2087002;28;19938;-81
2022/01/05 07:50:15;;;;;;;;;;;;;;;;;;2083138;28;19905;-81
2022/01/05 07:51:34;;;;;;;;;;;;;;;;;;2086298;28;19905;-82
2022/01/05 07:52:53;;;;;;;;;;;;;;;;;;2082304;28;19920;-81
2022/01/05 07:54:12;;;;;;;;;;;;;;;;;;2088305;28;19912;-82
2022/01/05 07:55:31;;;;;;;;;;;;;;;;;;2087639;28;20370;-82
2022/01/05 07:56:50;;;;;;;;;;;;;;;;;;2084271;28;19905;-81
2022/01/05 07:58:09;;;;;;;;;;;;;;;;;;2084986;28;19920;-82
2022/01/05 07:59:28;;;;;;;;;;;;;;;;;;2087951;28;20369;-80
2022/01/05 08:00:47;;;;;;;;;;;;;;;;;;2089734;28;19912;-82
2022/01/05 08:02:06;;;;;;;;;;;;;;;;;;2089550;28;19917;-82
2022/01/05 08:03:25;;;;;;;;;;;;;;;;;;2088963;28;19917;-81
2022/01/05 08:04:48;;;;;;;;;;;;;;;;;;2088806;28;20437;-80
2022/01/05 08:06:07;;;;;;;;;;;;;;;;;;2089563;28;19904;-81
2022/01/05 08:07:26;;;;;;;;;;;;;;;;;;2086853;28;19940;-81
2022/01/05 08:08:45;;;;;;;;;;;;;;;;;;2086361;28;19909;-82
2022/01/05 08:10:21;;;;;;;;;;;;;;;;;;2133271;23;20398;-82
2022/01/05 08:11:40;;;;;;;;;;;;;;;;;;2085640;28;20012;-81
2022/01/05 08:12:59;;;;;;;;;;;;;;;;;;2084365;28;19920;-81
2022/01/05 08:14:21;;;;;;;;;;;;;;;;;;2092793;28;20357;-81
2022/01/05 08:15:43;;;;;;;;;;;;;;;;;;2091099;28;19947;-81
2022/01/05 08:17:04;;;;;;;;;;;;;;;;;;2089801;28;19916;-81
2022/01/05 08:18:23;;;;;;;;;;;;;;;;;;2083363;28;19905;-81
2022/01/05 08:19:42;;;;;;;;;;;;;;;;;;2084402;28;20255;-80
2022/01/05 08:21:01;;;;;;;;;;;;;;;;;;2083235;28;20354;-81
2022/01/05 08:22:20;;;;;;;;;;;;;;;;;;2082279;28;19991;-80
2022/01/05 08:23:38;;;;;;;;;;;;;;;;;;2082102;28;19909;-82
2022/01/05 08:24:57;;;;;;;;;;;;;;;;;;2083759;28;19913;-82
2022/01/05 08:26:19;;;;;;;;;;;;;;;;;;2081827;28;19952;-82
2022/01/05 08:27:45;;;;;;;;;;;;;;;;;;2081431;28;19913;-81
2022/01/05 08:29:04;;;;;;;;;;;;;;;;;;2079351;28;20394;-82
2022/01/05 08:30:23;;;;;;;;;;;;;;;;;;2088772;28;19912;-80
2022/01/05 08:31:42;;;;;;;;;;;;;;;;;;2085843;28;19905;-82
2022/01/05 08:33:03;;;;;;;;;;;;;;;;;;2080333;28;19913;-82
2022/01/05 08:34:21;;;;;;;;;;;;;;;;;;2081334;28;19909;-79
2022/01/05 08:35:40;;;;;;;;;;;;;;;;;;2081915;28;19917;-80
2022/01/05 08:36:59;;;;;;;;;;;;;;;;;;2078711;28;19913;-80
2022/01/05 08:38:18;;;;;;;;;;;;;;;;;;2082011;28;19916;-81
2022/01/05 08:39:36;;;;;;;;;;;;;;;;;;2078762;28;20362;-80
2022/01/05 08:40:55;;;;;;;;;;;;;;;;;;2090051;28;19912;-80
2022/01/05 08:42:14;;;;;;;;;;;;;;;;;;2084471;28;19921;-79
2022/01/05 08:43:33;;;;;;;;;;;;;;;;;;2080202;28;19913;-80
2022/01/05 08:44:52;;;;;;;;;;;;;;;;;;2079344;28;19913;-79
2022/01/05 08:46:11;;;;;;;;;;;;;;;;;;2080854;28;19920;-81
2022/01/05 08:47:29;;;;;;;;;;;;;;;;;;2086487;28;20352;-81
2022/01/05 08:48:48;;;;;;;;;;;;;;;;;;2082171;28;19920;-81
2022/01/05 08:50:07;;;;;;;;;;;;;;;;;;2082138;28;19909;-80
2022/01/05 08:51:25;;;;;;;;;;;;;;;;;;2083623;28;20285;-81
2022/01/05 08:52:44;;;;;;;;;;;;;;;;;;2082440;28;19913;-83
2022/01/05 08:54:03;;;;;;;;;;;;;;;;;;2084327;28;19991;-81
2022/01/05 08:55:22;;;;;;;;;;;;;;;;;;2084922;28;19905;-81
2022/01/05 08:56:42;;;;;;;;;;;;;;;;;;2082357;28;20361;-81
2022/01/05 08:58:01;;;;;;;;;;;;;;;;;;2080300;28;19921;-78
2022/01/05 08:59:20;;;;;;;;;;;;;;;;;;2080402;28;19909;-81
2022/01/05 09:00:38;;;;;;;;;;;;;;;;;;2088668;28;19966;-81
2022/01/05 09:01:57;;;;;;;;;;;;;;;;;;2084919;28;19913;-83
2022/01/05 09:03:16;;;;;;;;;;;;;;;;;;2080095;28;19905;-80
2022/01/05 09:04:35;;;;;;;;;;;;;;;;;;2081236;28;19956;-82
2022/01/05 09:05:54;;;;;;;;;;;;;;;;;;2088288;28;19912;-80
2022/01/05 09:07:13;;;;;;;;;;;;;;;;;;2092197;28;20357;-81
2022/01/05 09:08:32;;;;;;;;;;;;;;;;;;2084932;28;19960;-80
2022/01/05 09:09:50;;;;;;;;;;;;;;;;;;2082778;28;20342;-81
2022/01/05 09:11:10;;;;;;;;;;;;;;;;;;2082883;28;19917;-81
2022/01/05 09:12:32;;;;;;;;;;;;;;;;;;2083221;28;19917;-82
2022/01/05 09:13:51;;;;;;;;;;;;;;;;;;2082381;28;19917;-81
2022/01/05 09:15:10;;;;;;;;;;;;;;;;;;2080476;28;19905;-82
2022/01/05 09:16:29;;;;;;;;;;;;;;;;;;2080976;28;20292;-82
2022/01/05 09:17:48;;;;;;;;;;;;;;;;;;2081431;28;19905;-81
2022/01/05 09:19:07;;;;;;;;;;;;;;;;;;2077319;28;19917;-81
2022/01/05 09:20:26;;;;;;;;;;;;;;;;;;2080905;28;19909;-82
2022/01/05 09:21:48;;;;;;;;;;;;;;;;;;2080625;28;20358;-78
2022/01/05 09:23:07;;;;;;;;;;;;;;;;;;2079823;28;19909;-79
2022/01/05 09:24:26;;;;;;;;;;;;;;;;;;2077744;28;19917;-79
2022/01/05 09:25:45;;;;;;;;;;;;;;;;;;2087354;28;19912;-79
2022/01/05 09:27:04;;;;;;;;;;;;;;;;;;2083428;28;19909;-80